createdAt,value
2022-10-29T03:55:41.336Z,102292.13
2022-10-29T03:58:08.767Z,102296.25
2022-10-29T04:00:36.085Z,102297.16
2022-10-29T04:03:03.904Z,102295.66
2022-10-29T04:05:31.206Z,102299.94
2022-10-29T04:07:58.879Z,102308.84
2022-10-29T04:10:26.896Z,102302.31
2022-10-29T04:12:54.515Z,102296.84
2022-10-29T04:15:22.070Z,102305.22
2022-10-29T04:17:51.403Z,102310.66
2022-10-29T04:21:05.832Z,102307.25
2022-10-29T04:24:12.267Z,102305.53
2022-10-29T04:28:48.875Z,102304.03
2022-10-29T04:31:17.136Z,102307.34
2022-10-29T04:33:45.142Z,102314.31
2022-10-29T04:36:12.835Z,102307.34
2022-10-29T04:38:40.442Z,102310.63
2022-10-29T04:41:08.365Z,102310.41
2022-10-29T04:43:36.030Z,102299.94
2022-10-29T04:46:03.570Z,102303.31
2022-10-29T04:48:30.824Z,102299.16
2022-10-29T04:50:58.102Z,102299.72
2022-10-29T04:53:25.356Z,102296.31
2022-10-29T04:56:01.920Z,102300.25
2022-10-29T04:58:29.568Z,102301.25
2022-10-29T05:01:07.639Z,102302.25
2022-10-29T05:03:35.627Z,102298.66
2022-10-29T05:06:04.936Z,102290.50
2022-10-29T05:08:32.551Z,102286.06
2022-10-29T05:11:04.941Z,102281.00
2022-10-29T05:13:33.435Z,102289.72
2022-10-29T05:16:00.850Z,102293.38
2022-10-29T05:18:28.111Z,102296.31
2022-10-29T05:20:55.857Z,102303.97
2022-10-29T05:23:23.886Z,102309.09
2022-10-29T05:25:52.368Z,102306.84
2022-10-29T05:28:22.119Z,102312.00
2022-10-29T05:30:52.224Z,102316.13
2022-10-29T05:33:22.714Z,102325.00
2022-10-29T05:35:51.303Z,102319.53
2022-10-29T05:38:19.379Z,102316.81
2022-10-29T05:40:46.768Z,102317.50
2022-10-29T05:43:16.165Z,102311.19
2022-10-29T05:45:44.509Z,102323.28
2022-10-29T05:50:45.540Z,102320.00
2022-10-29T05:53:14.687Z,102318.50
2022-10-29T05:55:42.533Z,102320.03
2022-10-29T05:58:14.051Z,102322.06
2022-10-29T06:00:44.651Z,102321.38
2022-10-29T06:03:20.406Z,102315.56
2022-10-29T06:05:48.898Z,102320.81
2022-10-29T06:08:17.271Z,102317.25
2022-10-29T06:10:45.319Z,102325.81
2022-10-29T06:13:15.331Z,102327.53
2022-10-29T06:15:42.703Z,102332.16
2022-10-29T06:18:10.675Z,102331.47
2022-10-29T06:20:39.091Z,102332.97
2022-10-29T06:23:07.347Z,102327.34
2022-10-29T06:25:35.149Z,102329.75
2022-10-29T06:28:05.059Z,102332.66
2022-10-29T06:30:35.058Z,102338.56
2022-10-29T06:33:04.685Z,102334.44
2022-10-29T06:35:32.710Z,102333.72
2022-10-29T06:38:00.536Z,102336.88
2022-10-29T06:40:28.275Z,102346.13
2022-10-29T06:43:00.913Z,102341.19
2022-10-29T06:45:29.209Z,102341.34
2022-10-29T06:47:56.824Z,102339.44
2022-10-29T06:50:25.310Z,102345.56
2022-10-29T06:52:58.005Z,102338.09
2022-10-29T06:55:26.471Z,102342.16
2022-10-29T06:58:05.649Z,102339.31
2022-10-29T07:00:34.686Z,102340.81
2022-10-29T07:03:03.638Z,102341.16
2022-10-29T07:05:32.474Z,102338.41
2022-10-29T07:08:01.243Z,102342.16
2022-10-29T07:10:31.013Z,102341.56
2022-10-29T07:12:58.989Z,102342.47
2022-10-29T07:15:34.189Z,102333.50
2022-10-29T07:18:07.337Z,102326.94
2022-10-29T07:20:37.292Z,102331.41
2022-10-29T07:23:04.741Z,102332.72
2022-10-29T07:25:33.053Z,102344.00
2022-10-29T07:28:05.201Z,102346.78
2022-10-29T07:30:33.803Z,102351.47
2022-10-29T07:33:01.396Z,102352.94
2022-10-29T07:35:28.771Z,102347.38
2022-10-29T07:38:05.248Z,102355.41
2022-10-29T07:40:36.674Z,102342.72
2022-10-29T07:43:04.373Z,102351.31
2022-10-29T07:45:32.824Z,102353.13
2022-10-29T07:48:03.004Z,102356.56
2022-10-29T07:50:32.304Z,102356.75
2022-10-29T07:53:01.108Z,102357.34
2022-10-29T07:57:59.064Z,102361.84
2022-10-29T08:00:26.949Z,102354.34
2022-10-29T08:02:54.964Z,102359.59
2022-10-29T08:05:23.977Z,102363.88
2022-10-29T08:07:54.483Z,102365.78
2022-10-29T08:10:23.762Z,102358.84
2022-10-29T08:12:53.220Z,102357.81
2022-10-29T08:15:21.717Z,102359.09
2022-10-29T08:17:50.454Z,102358.53
2022-10-29T08:20:18.519Z,102352.19
2022-10-29T08:22:46.361Z,102354.75
2022-10-29T08:25:14.735Z,102360.72
2022-10-29T08:27:43.370Z,102352.44
2022-10-29T08:30:13.289Z,102352.84
2022-10-29T08:32:47.158Z,102351.06
2022-10-29T08:35:15.259Z,102352.31
2022-10-29T08:37:46.396Z,102344.53
2022-10-29T08:40:48.245Z,102346.91
2022-10-29T08:43:21.633Z,102343.78
2022-10-29T08:45:51.982Z,102341.94
2022-10-29T08:48:30.253Z,102337.81
2022-10-29T08:51:06.661Z,102342.59
2022-10-29T08:53:41.193Z,102338.75
2022-10-29T08:56:28.444Z,102334.44
2022-10-29T08:59:22.019Z,102341.06
2022-10-29T09:01:51.177Z,102338.94
2022-10-29T09:04:27.439Z,102344.44
2022-10-29T09:07:22.847Z,102344.56
2022-10-29T09:09:59.840Z,102339.22
2022-10-29T09:12:43.407Z,102330.13
2022-10-29T09:15:32.895Z,102332.31
2022-10-29T09:18:47.909Z,102323.94
2022-10-29T09:21:27.411Z,102325.31
2022-10-29T09:24:05.320Z,102321.88
2022-10-29T09:26:49.800Z,102319.66
2022-10-29T09:29:46.482Z,102314.59
2022-10-29T09:32:23.369Z,102314.75
2022-10-29T09:34:55.841Z,102320.56
2022-10-29T09:37:42.093Z,102312.72
2022-10-29T09:40:18.119Z,102306.75
2022-10-29T09:42:48.390Z,102300.91
2022-10-29T09:45:20.537Z,102305.28
2022-10-29T09:48:24.044Z,102305.97
2022-10-29T09:50:59.245Z,102304.75
2022-10-29T09:53:27.050Z,102308.16
2022-10-29T09:55:54.845Z,102307.53
2022-10-29T09:58:27.512Z,102311.97
2022-10-29T10:00:57.036Z,102309.84
2022-10-29T10:03:30.622Z,102311.75
2022-10-29T10:05:58.258Z,102308.38
2022-10-29T10:08:25.994Z,102303.91
2022-10-29T10:11:02.059Z,102292.84
2022-10-29T10:13:32.428Z,102297.03
2022-10-29T10:16:02.004Z,102292.84
2022-10-29T10:18:32.521Z,102285.41
2022-10-29T10:21:01.784Z,102286.00
2022-10-29T10:23:48.294Z,102279.78
2022-10-29T10:26:45.812Z,102266.22
2022-10-29T10:29:18.244Z,102272.41
2022-10-29T10:32:05.762Z,102260.88
2022-10-29T10:34:34.236Z,102266.72
2022-10-29T10:37:18.555Z,102264.38
2022-10-29T10:39:52.623Z,102270.38
2022-10-29T10:42:28.864Z,102259.31
2022-10-29T10:44:58.587Z,102257.28
2022-10-29T10:47:29.765Z,102253.06
2022-10-29T10:50:18.497Z,102252.44
2022-10-29T10:52:47.067Z,102243.13
2022-10-29T10:55:22.864Z,102235.16
2022-10-29T10:58:15.634Z,102230.41
2022-10-29T11:00:53.724Z,102218.88
2022-10-29T11:03:41.123Z,102219.97
2022-10-29T11:06:22.823Z,102225.91
2022-10-29T11:08:56.871Z,102213.97
2022-10-29T11:11:32.733Z,102206.97
2022-10-29T11:14:06.616Z,102205.66
2022-10-29T11:16:54.778Z,102190.50
2022-10-29T11:19:48.301Z,102187.47
2022-10-29T11:22:46.685Z,102177.47
2022-10-29T11:25:17.709Z,102181.00
2022-10-29T11:27:55.621Z,102179.16
2022-10-29T11:30:23.428Z,102173.81
2022-10-29T11:32:55.183Z,102170.88
2022-10-29T11:35:50.127Z,102173.38
2022-10-29T11:38:45.126Z,102171.13
2022-10-29T11:41:27.347Z,102168.03
2022-10-29T11:43:54.973Z,102166.03
2022-10-29T11:46:55.243Z,102163.13
2022-10-29T11:49:41.171Z,102154.47
2022-10-29T11:52:12.520Z,102157.97
2022-10-29T11:54:49.189Z,102152.41
2022-10-29T11:57:32.588Z,102152.53
2022-10-29T12:00:12.416Z,102144.41
2022-10-29T12:02:49.934Z,102144.72
2022-10-29T12:05:35.301Z,102136.91
2022-10-29T12:08:24.283Z,102135.41
2022-10-29T12:11:17.886Z,102126.22
2022-10-29T12:13:56.219Z,102121.59
2022-10-29T12:16:33.870Z,102127.56
2022-10-29T12:19:39.718Z,102121.66
2022-10-29T12:22:22.062Z,102109.88
2022-10-29T12:25:11.391Z,102105.31
2022-10-29T12:27:47.935Z,102101.50
2022-10-29T12:30:18.243Z,102098.31
2022-10-29T12:33:32.062Z,102100.00
2022-10-29T12:36:19.504Z,102098.00
2022-10-29T12:38:54.541Z,102097.34
2022-10-29T12:41:44.291Z,102086.13
2022-10-29T12:44:45.393Z,102093.06
2022-10-29T12:47:36.735Z,102088.81
2022-10-29T12:50:43.183Z,102077.44
2022-10-29T12:53:53.178Z,102080.81
2022-10-29T12:56:21.589Z,102080.03
2022-10-29T12:58:57.159Z,102075.19
2022-10-29T13:01:50.096Z,102068.06
2022-10-29T13:04:28.422Z,102063.78
2022-10-29T13:07:11.907Z,102062.38
2022-10-29T13:09:41.069Z,102054.41
2022-10-29T13:12:12.978Z,102043.22
2022-10-29T13:14:48.893Z,102046.84
2022-10-29T13:17:33.874Z,102043.53
2022-10-29T13:20:36.103Z,102038.75
2022-10-29T13:23:06.639Z,102044.47
2022-10-29T13:25:42.342Z,102040.41
2022-10-29T13:28:10.149Z,102033.94
2022-10-29T13:30:40.421Z,102042.03
2022-10-29T13:33:26.536Z,102034.66
2022-10-29T13:36:01.343Z,102035.41
2022-10-29T13:39:06.153Z,102032.50
2022-10-29T13:41:40.324Z,102023.03
2022-10-29T13:44:07.664Z,102032.94
2022-10-29T13:47:01.160Z,102022.22
2022-10-29T13:49:34.634Z,102019.13
2022-10-29T13:52:10.455Z,102006.47
2022-10-29T13:54:43.628Z,102012.06
2022-10-29T13:57:26.418Z,102000.22
2022-10-29T14:00:12.326Z,102005.53
2022-10-29T14:02:43.325Z,102004.03
2022-10-29T14:05:20.066Z,102013.94
2022-10-29T14:07:56.986Z,102008.69
2022-10-29T14:10:48.651Z,102008.06
2022-10-29T14:13:51.358Z,102012.66
2022-10-29T14:16:24.058Z,102017.28
2022-10-29T14:18:51.345Z,102003.84
2022-10-29T14:21:22.406Z,102010.06
2022-10-29T14:23:56.679Z,102009.66
2022-10-29T14:26:24.953Z,102002.66
2022-10-29T14:28:53.693Z,102010.94
2022-10-29T14:31:24.241Z,101992.69
2022-10-29T14:33:58.653Z,102004.28
2022-10-29T14:36:39.079Z,102003.44
2022-10-29T14:39:14.249Z,101995.13
2022-10-29T14:41:41.622Z,102002.63
2022-10-29T14:44:16.095Z,101996.94
2022-10-29T14:46:51.059Z,101989.31
2022-10-29T14:49:20.847Z,101983.56
2022-10-29T14:51:53.185Z,101987.88
2022-10-29T14:54:28.226Z,101990.19
2022-10-29T14:57:03.863Z,101986.75
2022-10-29T14:59:33.825Z,101994.78
2022-10-29T15:02:32.046Z,102000.91
2022-10-29T15:04:58.402Z,101992.56
2022-10-29T15:07:34.374Z,101989.03
2022-10-29T15:10:24.424Z,101997.69
2022-10-29T15:12:52.500Z,101992.56
2022-10-29T15:15:28.791Z,101994.72
2022-10-29T15:18:16.098Z,101999.88
2022-10-29T15:20:43.308Z,101994.19
2022-10-29T15:23:29.798Z,101986.03
2022-10-29T15:26:07.608Z,101990.66
2022-10-29T15:28:41.084Z,101992.94
2022-10-29T15:31:21.238Z,101987.84
2022-10-29T15:33:53.576Z,101994.31
2022-10-29T15:36:21.463Z,101995.69
2022-10-29T15:39:18.000Z,101992.63
2022-10-29T15:41:48.910Z,101991.94
2022-10-29T15:44:38.445Z,101990.16
2022-10-29T15:47:36.123Z,101996.25
2022-10-29T15:50:10.787Z,101993.50
2022-10-29T15:52:41.336Z,102001.97
2022-10-29T15:55:18.789Z,101998.47
2022-10-29T15:57:51.620Z,101996.81
2022-10-29T16:00:22.190Z,101995.69
2022-10-29T16:02:50.574Z,101998.81
2022-10-29T16:05:18.816Z,102004.41
2022-10-29T16:10:21.929Z,101997.25
2022-10-29T16:12:49.832Z,101997.66
2022-10-29T16:15:19.808Z,101992.78
2022-10-29T16:17:47.946Z,102008.22
2022-10-29T16:20:18.109Z,102003.69
2022-10-29T16:22:46.728Z,102003.50
2022-10-29T16:25:40.900Z,102000.25
2022-10-29T16:28:09.589Z,102009.59
2022-10-29T16:33:11.757Z,102001.31
2022-10-29T16:35:39.015Z,102006.31
2022-10-29T16:38:06.396Z,102009.06
2022-10-29T16:40:33.746Z,102010.22
2022-10-29T16:43:01.532Z,102010.59
2022-10-29T16:45:30.310Z,102008.97
2022-10-29T16:47:59.594Z,102006.38
2022-10-29T16:50:32.696Z,102016.38
2022-10-29T16:53:01.682Z,102017.91
2022-10-29T16:55:30.127Z,102012.56
2022-10-29T16:57:57.814Z,102011.97
2022-10-29T17:00:26.822Z,102013.25
2022-10-29T17:02:54.269Z,102013.53
2022-10-29T17:05:21.685Z,102008.28
2022-10-29T17:07:49.215Z,102009.09
2022-10-29T17:10:16.719Z,102014.63
2022-10-29T17:12:44.034Z,102019.31
2022-10-29T17:15:12.084Z,102028.63
2022-10-29T17:17:42.356Z,102025.69
2022-10-29T17:20:12.716Z,102029.94
2022-10-29T17:22:40.579Z,102029.78
2022-10-29T17:25:08.730Z,102033.66
2022-10-29T17:27:41.199Z,102038.28
2022-10-29T17:30:10.561Z,102036.84
2022-10-29T17:32:37.862Z,102033.47
2022-10-29T17:35:05.574Z,102038.59
2022-10-29T17:37:33.210Z,102030.13
2022-10-29T17:40:04.758Z,102033.56
2022-10-29T17:42:35.409Z,102038.22
2022-10-29T17:45:03.687Z,102041.19
2022-10-29T17:47:31.007Z,102041.00
2022-10-29T17:49:58.352Z,102047.16
2022-10-29T17:52:25.619Z,102046.34
2022-10-29T17:54:52.937Z,102044.84
2022-10-29T17:57:20.732Z,102048.66
2022-10-29T17:59:48.009Z,102054.38
2022-10-29T18:02:15.339Z,102051.41
2022-10-29T18:04:42.775Z,102041.22
2022-10-29T18:07:10.166Z,102057.75
2022-10-29T18:09:37.434Z,102052.03
2022-10-29T18:12:05.032Z,102060.09
2022-10-29T18:14:32.327Z,102063.06
2022-10-29T18:17:01.034Z,102056.50
2022-10-29T18:19:28.294Z,102059.69
2022-10-29T18:21:56.135Z,102055.03
2022-10-29T18:24:24.179Z,102054.19
2022-10-29T18:26:51.552Z,102055.03
2022-10-29T18:29:18.874Z,102050.38
2022-10-29T18:31:46.851Z,102048.91
2022-10-29T18:34:15.187Z,102041.50
2022-10-29T18:36:43.169Z,102046.75
2022-10-29T18:39:10.952Z,102049.72
2022-10-29T18:41:38.408Z,102048.47
2022-10-29T18:44:05.682Z,102044.84
2022-10-29T18:46:33.882Z,102045.47
2022-10-29T18:49:01.657Z,102047.19
2022-10-29T18:51:31.032Z,102051.38
2022-10-29T18:53:58.850Z,102043.97
2022-10-29T18:56:27.811Z,102041.66
2022-10-29T18:58:56.274Z,102048.78
2022-10-29T19:01:27.437Z,102045.81
2022-10-29T19:03:57.577Z,102041.16
2022-10-29T19:06:27.290Z,102036.59
2022-10-29T19:08:56.006Z,102045.22
2022-10-29T19:11:25.614Z,102044.75
2022-10-29T19:13:55.473Z,102043.28
2022-10-29T19:16:24.176Z,102049.19
2022-10-29T19:21:39.406Z,102053.13
2022-10-29T19:24:07.595Z,102050.84
2022-10-29T19:26:36.047Z,102056.97
2022-10-29T19:29:06.067Z,102053.19
2022-10-29T19:31:35.335Z,102058.44
2022-10-29T19:34:06.076Z,102064.13
2022-10-29T19:36:36.068Z,102059.84
2022-10-29T19:39:04.229Z,102056.50
2022-10-29T19:41:32.142Z,102050.31
2022-10-29T19:44:01.060Z,102047.78
2022-10-29T19:46:29.258Z,102046.06
2022-10-29T19:49:00.758Z,102049.88
2022-10-29T19:51:28.205Z,102050.50
2022-10-29T19:53:57.951Z,102044.81
2022-10-29T19:56:25.851Z,102048.81
2022-10-29T19:58:53.226Z,102061.78
2022-10-29T20:01:20.537Z,102061.38
2022-10-29T20:03:47.966Z,102055.72
2022-10-29T20:06:15.650Z,102061.53
2022-10-29T20:08:43.365Z,102073.72
2022-10-29T20:11:11.199Z,102066.72
2022-10-29T20:13:40.041Z,102056.97
2022-10-29T20:16:13.531Z,102062.91
2022-10-29T20:18:40.939Z,102064.63
2022-10-29T20:21:08.705Z,102069.88
2022-10-29T20:23:36.566Z,102056.72
2022-10-29T20:26:04.001Z,102069.06
2022-10-29T20:28:31.326Z,102067.91
2022-10-29T20:31:12.647Z,102064.16
2022-10-29T20:33:40.636Z,102062.63
2022-10-29T20:36:08.567Z,102063.94
2022-10-29T20:38:36.852Z,102077.25
2022-10-29T20:41:04.155Z,102076.25
2022-10-29T20:43:31.447Z,102074.75
2022-10-29T20:46:03.684Z,102077.31
2022-10-29T20:48:32.756Z,102077.91
2022-10-29T20:51:00.620Z,102069.28
2022-10-29T20:53:28.301Z,102074.47
2022-10-29T20:55:55.651Z,102071.78
2022-10-29T20:58:23.539Z,102069.34
2022-10-29T21:00:50.893Z,102072.25
2022-10-29T21:03:18.530Z,102078.75
2022-10-29T21:05:45.876Z,102072.25
2022-10-29T21:08:13.289Z,102073.66
2022-10-29T21:10:41.001Z,102067.34
2022-10-29T21:13:08.290Z,102064.97
2022-10-29T21:15:36.576Z,102070.13
2022-10-29T21:18:04.080Z,102064.44
2022-10-29T21:20:32.574Z,102058.94
2022-10-29T21:23:00.388Z,102060.78
2022-10-29T21:25:28.214Z,102059.69
2022-10-29T21:27:56.154Z,102053.06
2022-10-29T21:30:23.726Z,102058.34
2022-10-29T21:32:52.108Z,102064.91
2022-10-29T21:35:19.563Z,102064.59
2022-10-29T21:37:47.084Z,102064.56
2022-10-29T21:40:14.846Z,102067.72
2022-10-29T21:42:42.365Z,102067.81
2022-10-29T21:45:10.280Z,102064.44
2022-10-29T21:47:38.456Z,102069.72
2022-10-29T21:50:06.167Z,102060.78
2022-10-29T21:52:33.802Z,102057.00
2022-10-29T21:55:01.602Z,102056.34
2022-10-29T21:57:28.828Z,102053.50
2022-10-29T21:59:56.117Z,102063.75
2022-10-29T22:02:23.888Z,102065.94
